createdAt,value
2018-12-11T00:02:00.251Z,77.30
2018-12-11T00:25:22.771Z,85.20
2018-12-11T00:30:41.197Z,84.90
2018-12-11T00:43:37.992Z,87.50
2018-12-11T00:48:42.606Z,85.60
2018-12-11T01:04:08.090Z,84.80
2018-12-11T01:11:47.353Z,85.70
2018-12-11T01:22:04.654Z,86.30
2018-12-11T01:29:40.526Z,87.40
2018-12-11T01:32:09.736Z,87.50
2018-12-11T01:37:11.878Z,87.70
2018-12-11T01:39:44.571Z,87.60
2018-12-11T01:52:25.618Z,88.30
2018-12-11T02:11:03.230Z,89.40
2018-12-11T02:21:19.642Z,89.60
2018-12-11T02:26:27.957Z,90.20
2018-12-11T02:34:09.146Z,90.20
2018-12-11T02:39:29.194Z,90.00
2018-12-11T02:47:12.291Z,90.00
2018-12-11T03:00:04.093Z,86.50
2018-12-11T03:10:16.469Z,87.10
2018-12-11T03:20:43.001Z,87.10
2018-12-11T03:31:02.128Z,87.00
2018-12-11T03:46:27.535Z,86.50
2018-12-11T04:12:32.267Z,88.10
2018-12-11T04:22:50.161Z,87.60
2018-12-11T04:25:23.652Z,87.80
2018-12-11T04:33:01.685Z,89.40
2018-12-11T04:35:36.810Z,90.10
2018-12-11T04:38:12.643Z,89.80
2018-12-11T04:40:41.641Z,89.90
2018-12-11T04:48:30.276Z,90.20
2018-12-11T04:53:34.938Z,89.40
2018-12-11T04:58:44.438Z,89.10
2018-12-11T05:24:22.323Z,88.00
2018-12-11T05:34:44.500Z,87.30
2018-12-11T05:52:56.503Z,86.30
2018-12-11T05:58:01.445Z,87.50
2018-12-11T06:05:50.518Z,87.10
2018-12-11T06:21:22.775Z,87.50
2018-12-11T06:24:02.239Z,87.70
2018-12-11T06:26:34.600Z,87.60
2018-12-11T06:37:01.171Z,88.10
2018-12-11T06:39:36.912Z,89.10
2018-12-11T06:42:18.092Z,89.80
2018-12-11T06:53:06.798Z,88.90
2018-12-11T06:55:41.637Z,88.70
2018-12-11T06:58:21.384Z,87.90
2018-12-11T07:00:59.117Z,88.00
2018-12-11T07:06:31.877Z,87.20
2018-12-11T07:09:15.522Z,87.40
2018-12-11T07:11:57.558Z,86.90
2018-12-11T07:14:37.135Z,86.30
2018-12-11T07:17:17.486Z,85.90
2018-12-11T07:22:43.834Z,84.80
2018-12-11T07:25:16.944Z,84.40
2018-12-11T07:27:56.538Z,84.10
2018-12-11T07:30:35.030Z,83.40
2018-12-11T07:33:16.732Z,83.40
2018-12-11T07:35:57.252Z,84.30
2018-12-11T07:38:34.790Z,83.60
2018-12-11T07:41:14.488Z,83.00
2018-12-11T07:43:57.120Z,83.60
2018-12-11T07:46:32.619Z,83.80
2018-12-11T07:49:11.346Z,84.20
2018-12-11T07:51:46.459Z,84.40
2018-12-11T07:54:23.972Z,83.10
2018-12-11T07:57:00.886Z,82.70
2018-12-11T07:59:36.700Z,82.50
2018-12-11T08:02:12.055Z,81.60
2018-12-11T08:04:46.910Z,80.60
2018-12-11T08:07:22.188Z,79.40
2018-12-11T08:10:05.180Z,79.20
2018-12-11T08:12:40.744Z,78.80
2018-12-11T08:15:21.985Z,79.40
2018-12-11T08:17:58.207Z,80.00
2018-12-11T08:20:27.786Z,81.30
2018-12-11T08:23:02.254Z,79.40
2018-12-11T08:25:37.188Z,78.60
2018-12-11T08:28:10.981Z,78.30
2018-12-11T08:30:46.391Z,78.30
2018-12-11T08:33:24.827Z,78.60
2018-12-11T08:36:01.630Z,78.60
2018-12-11T08:43:41.617Z,78.80
2018-12-11T08:46:11.001Z,79.30
2018-12-11T08:51:15.812Z,79.40
2018-12-11T08:59:06.568Z,80.30
2018-12-11T09:01:41.115Z,80.00
2018-12-11T09:04:16.729Z,80.00
2018-12-11T09:06:50.430Z,81.10
2018-12-11T09:09:25.772Z,80.20
2018-12-11T09:12:01.945Z,80.00
2018-12-11T09:14:44.571Z,79.90
2018-12-11T09:17:20.449Z,80.00
2018-12-11T09:19:57.242Z,79.80
2018-12-11T09:22:28.327Z,79.90
2018-12-11T09:25:04.911Z,80.00
2018-12-11T09:27:41.116Z,80.20
2018-12-11T09:30:16.510Z,79.70
2018-12-11T09:32:51.813Z,78.70
2018-12-11T09:35:27.534Z,78.50
2018-12-11T09:38:04.753Z,78.80
2018-12-11T09:40:37.451Z,78.60
2018-12-11T09:43:09.213Z,77.80
2018-12-11T09:45:46.623Z,77.70
2018-12-11T09:48:25.857Z,78.20
2018-12-11T09:56:01.723Z,75.40
2018-12-11T09:58:50.602Z,75.70
2018-12-11T10:01:19.786Z,75.70
2018-12-11T10:03:54.706Z,76.10
2018-12-11T10:06:29.656Z,75.50
2018-12-11T10:09:06.596Z,74.40
2018-12-11T10:11:41.566Z,74.20
2018-12-11T10:14:15.835Z,74.40
2018-12-11T10:16:48.923Z,74.40
2018-12-11T10:24:48.862Z,74.50
2018-12-11T10:32:52.410Z,72.80
2018-12-11T10:35:28.931Z,71.90
2018-12-11T10:37:58.105Z,71.60
2018-12-11T10:40:37.861Z,70.90
2018-12-11T10:43:14.267Z,70.30
2018-12-11T10:45:47.573Z,70.90
2018-12-11T10:48:22.234Z,69.30
2018-12-11T10:50:58.426Z,69.70
2018-12-11T10:53:35.868Z,69.20
2018-12-11T10:56:11.427Z,68.10
2018-12-11T10:58:46.146Z,65.20
2018-12-11T11:01:25.126Z,65.70
2018-12-11T11:04:01.949Z,65.60
2018-12-11T11:06:34.121Z,64.10
2018-12-11T11:09:05.416Z,63.60
2018-12-11T11:11:45.084Z,61.10
2018-12-11T11:14:20.424Z,59.30
2018-12-11T11:16:57.569Z,59.40
2018-12-11T11:19:34.293Z,58.30
2018-12-11T11:22:15.830Z,58.00
2018-12-11T11:24:50.948Z,58.30
2018-12-11T11:27:42.992Z,58.30
2018-12-11T11:30:17.958Z,58.80
2018-12-11T11:32:53.753Z,59.60
2018-12-11T11:35:29.821Z,58.60
2018-12-11T11:38:06.685Z,57.30
2018-12-11T11:40:41.703Z,57.80
2018-12-11T11:43:20.304Z,57.60
2018-12-11T11:45:56.482Z,57.00
2018-12-11T11:48:31.623Z,56.40
2018-12-11T11:51:07.144Z,56.70
2018-12-11T11:53:46.285Z,56.30
2018-12-11T11:56:20.273Z,54.60
2018-12-11T11:58:59.406Z,50.70
2018-12-11T12:01:34.440Z,49.10
2018-12-11T12:04:11.313Z,52.80
2018-12-11T12:06:46.309Z,55.40
2018-12-11T12:09:20.996Z,56.50
2018-12-11T12:11:55.292Z,56.70
2018-12-11T12:17:11.337Z,55.30
2018-12-11T12:19:52.312Z,53.50
2018-12-11T12:25:08.458Z,49.70
2018-12-11T12:27:43.887Z,49.00
2018-12-11T12:30:25.058Z,50.70
2018-12-11T12:33:00.465Z,52.60
2018-12-11T12:35:33.159Z,52.50
2018-12-11T12:41:01.910Z,52.40
2018-12-11T12:43:36.299Z,52.60
2018-12-11T12:46:12.044Z,52.70
2018-12-11T12:48:49.061Z,53.40
2018-12-11T12:51:32.735Z,53.70
2018-12-11T12:54:09.195Z,53.20
2018-12-11T12:56:38.863Z,53.70
2018-12-11T12:59:13.322Z,54.70
2018-12-11T13:04:53.540Z,56.10
2018-12-11T13:07:28.681Z,57.70
2018-12-11T13:10:04.993Z,57.80
2018-12-11T13:12:41.777Z,58.00
2018-12-11T13:15:11.034Z,58.40
2018-12-11T13:20:18.713Z,58.60
2018-12-11T13:25:32.613Z,58.90
2018-12-11T13:28:13.608Z,58.60
2018-12-11T13:30:52.798Z,59.40
2018-12-11T13:33:28.243Z,59.60
2018-12-11T13:39:06.839Z,59.10
2018-12-11T13:41:38.015Z,59.50
2018-12-11T13:44:14.047Z,59.40
2018-12-11T13:46:56.577Z,58.80
2018-12-11T13:49:31.708Z,58.80
2018-12-11T13:52:02.207Z,59.20
2018-12-11T13:54:36.695Z,58.40
2018-12-11T13:57:11.755Z,59.00
2018-12-11T13:59:46.574Z,59.60
2018-12-11T14:02:22.326Z,59.90
2018-12-11T14:04:58.219Z,60.70
2018-12-11T14:07:30.350Z,61.00
2018-12-11T14:10:05.327Z,61.50
2018-12-11T14:12:40.372Z,61.90
2018-12-11T14:15:15.835Z,61.90
2018-12-11T14:17:51.001Z,62.20
2018-12-11T14:20:25.890Z,63.00
2018-12-11T14:25:35.891Z,62.60
2018-12-11T14:28:18.133Z,61.50
2018-12-11T14:30:54.454Z,61.10
2018-12-11T14:33:29.106Z,61.80
2018-12-11T14:36:02.576Z,61.20
2018-12-11T14:38:35.162Z,62.00
2018-12-11T14:41:09.482Z,62.10
2018-12-11T14:43:45.122Z,62.80
2018-12-11T14:46:24.182Z,62.40
2018-12-11T14:48:53.214Z,63.40
2018-12-11T14:51:28.134Z,62.60
2018-12-11T14:53:59.797Z,62.50
2018-12-11T14:56:35.343Z,61.30
2018-12-11T14:59:09.980Z,60.80
2018-12-11T15:01:45.927Z,60.00
2018-12-11T15:04:21.901Z,60.40
2018-12-11T15:09:39.100Z,60.90
2018-12-11T15:12:14.051Z,61.00
2018-12-11T15:14:49.208Z,60.70
2018-12-11T15:17:23.947Z,60.30
2018-12-11T15:20:05.937Z,60.20
2018-12-11T15:22:38.987Z,60.10
2018-12-11T15:25:15.823Z,60.10
2018-12-11T15:27:48.686Z,60.60
2018-12-11T15:30:27.288Z,61.20
2018-12-11T15:33:02.548Z,61.90
2018-12-11T15:35:34.948Z,62.70
2018-12-11T15:38:10.093Z,62.50
2018-12-11T15:40:45.427Z,63.00
2018-12-11T15:43:20.172Z,63.30
2018-12-11T15:46:00.884Z,63.00
2018-12-11T15:51:24.120Z,62.90
2018-12-11T15:53:58.990Z,62.70
2018-12-11T15:56:41.847Z,63.20
2018-12-11T15:59:17.807Z,62.70
2018-12-11T16:01:53.222Z,62.90
2018-12-11T16:04:26.071Z,62.80
2018-12-11T16:07:02.336Z,62.80
2018-12-11T16:09:44.893Z,62.70
2018-12-11T16:12:23.614Z,62.20
2018-12-11T16:14:59.547Z,62.00
2018-12-11T16:17:35.380Z,61.90
2018-12-11T16:20:17.033Z,62.40
2018-12-11T16:22:53.061Z,61.50
2018-12-11T16:25:33.627Z,61.90
2018-12-11T16:28:08.850Z,61.10
2018-12-11T16:30:50.678Z,61.20
2018-12-11T16:33:32.314Z,61.20
2018-12-11T16:36:08.093Z,60.90
2018-12-11T16:38:47.049Z,61.10
2018-12-11T16:41:25.776Z,61.70
2018-12-11T16:44:00.905Z,61.60
2018-12-11T16:46:36.692Z,62.00
2018-12-11T16:49:09.975Z,61.20
2018-12-11T16:51:45.253Z,61.10
2018-12-11T16:54:20.602Z,61.10
2018-12-11T16:56:49.739Z,61.30
2018-12-11T16:59:28.720Z,61.80
2018-12-11T17:02:01.427Z,61.30
2018-12-11T17:04:36.987Z,61.20
2018-12-11T17:07:17.454Z,60.80
2018-12-11T17:09:52.470Z,60.90
2018-12-11T17:12:30.589Z,61.60
2018-12-11T17:15:06.663Z,61.70
2018-12-11T17:17:39.389Z,62.20
2018-12-11T17:20:14.541Z,62.10
2018-12-11T17:22:47.725Z,62.30
2018-12-11T17:25:22.789Z,62.20
2018-12-11T17:27:57.930Z,62.00
2018-12-11T17:30:33.277Z,62.10
2018-12-11T17:33:05.409Z,62.50
2018-12-11T17:35:44.668Z,62.80
2018-12-11T17:38:20.333Z,63.60
2018-12-11T17:40:56.278Z,63.40
2018-12-11T17:46:04.462Z,63.80
2018-12-11T17:48:46.056Z,64.30
2018-12-11T17:51:26.417Z,65.00
2018-12-11T17:54:05.846Z,65.00
2018-12-11T17:56:42.173Z,65.00
2018-12-11T17:59:17.681Z,64.90
2018-12-11T18:01:58.840Z,64.30
2018-12-11T18:07:09.187Z,64.40
2018-12-11T18:09:45.089Z,63.80
2018-12-11T18:12:20.755Z,64.60
2018-12-11T18:14:55.587Z,64.50
2018-12-11T18:17:28.863Z,65.00
2018-12-11T18:20:10.627Z,65.50
2018-12-11T18:22:46.148Z,65.60
2018-12-11T18:25:21.408Z,66.20
2018-12-11T18:28:01.174Z,66.30
2018-12-11T18:30:37.210Z,66.50
2018-12-11T18:33:12.167Z,66.60
2018-12-11T18:35:47.560Z,66.60
2018-12-11T18:38:22.228Z,66.40
2018-12-11T18:40:54.604Z,66.30
2018-12-11T18:43:28.841Z,67.20
2018-12-11T18:46:12.229Z,66.60
2018-12-11T18:48:47.216Z,66.90
2018-12-11T18:51:22.529Z,66.80
2018-12-11T18:53:57.602Z,66.90
2018-12-11T18:56:36.370Z,67.40
2018-12-11T18:59:05.564Z,67.50
2018-12-11T19:01:42.568Z,67.00
2018-12-11T19:06:56.267Z,68.00
2018-12-11T19:09:25.666Z,68.50
2018-12-11T19:11:54.668Z,68.70
2018-12-11T19:14:29.278Z,68.60
2018-12-11T19:17:06.177Z,69.00
2018-12-11T19:19:41.624Z,68.90
2018-12-11T19:22:16.787Z,69.10
2018-12-11T19:24:53.094Z,69.00
2018-12-11T19:27:28.163Z,70.20
2018-12-11T19:30:09.348Z,69.30
2018-12-11T19:32:47.546Z,69.40
2018-12-11T19:35:33.618Z,69.60
2018-12-11T19:38:14.388Z,70.00
2018-12-11T19:40:47.444Z,70.60
2018-12-11T19:43:20.392Z,70.20
2018-12-11T19:45:58.293Z,70.70
2018-12-11T19:48:33.495Z,70.90
2018-12-11T19:51:12.948Z,70.90
2018-12-11T19:53:48.283Z,72.50
2018-12-11T19:56:23.541Z,71.10
2018-12-11T19:58:58.142Z,71.60
2018-12-11T20:01:39.132Z,72.20
2018-12-11T20:04:20.388Z,72.80
2018-12-11T20:06:52.969Z,71.90
2018-12-11T20:12:48.861Z,72.00
2018-12-11T20:15:19.897Z,72.40
2018-12-11T20:17:59.587Z,72.30
2018-12-11T20:20:34.529Z,72.30
2018-12-11T20:23:10.299Z,72.30
2018-12-11T20:25:44.968Z,72.40
2018-12-11T20:28:20.978Z,72.30
2018-12-11T20:30:58.240Z,72.50
2018-12-11T20:36:38.124Z,72.40
2018-12-11T20:42:20.007Z,72.30
2018-12-11T20:44:55.259Z,72.70
2018-12-11T20:47:31.049Z,73.00
2018-12-11T20:50:06.173Z,73.50
2018-12-11T20:55:42.324Z,74.50
2018-12-11T20:58:17.408Z,74.50
2018-12-11T21:03:58.114Z,75.50
2018-12-11T21:06:30.356Z,75.50
2018-12-11T21:09:07.637Z,75.40
2018-12-11T21:11:44.723Z,75.30
2018-12-11T21:14:20.240Z,75.30
2018-12-11T21:16:55.240Z,76.70
2018-12-11T21:19:30.594Z,75.70
2018-12-11T21:24:36.747Z,76.60
2018-12-11T21:27:12.352Z,75.30
2018-12-11T21:32:23.438Z,75.70
2018-12-11T21:34:59.950Z,75.10
2018-12-11T21:37:34.868Z,75.20
2018-12-11T21:40:14.762Z,75.10
2018-12-11T21:42:53.478Z,75.40
2018-12-11T21:45:28.543Z,75.80
2018-12-11T21:51:11.934Z,77.00
2018-12-11T21:53:47.498Z,77.10
2018-12-11T21:56:22.737Z,77.50
2018-12-11T21:58:57.915Z,77.90
2018-12-11T22:01:33.919Z,78.10
2018-12-11T22:06:41.072Z,79.10
2018-12-11T22:09:18.359Z,79.00
2018-12-11T22:11:53.028Z,78.90
2018-12-11T22:14:26.210Z,78.60
2018-12-11T22:17:01.528Z,78.20
2018-12-11T22:19:37.667Z,78.40
2018-12-11T22:22:12.096Z,78.10
2018-12-11T22:24:47.326Z,78.40
2018-12-11T22:27:26.238Z,78.40
2018-12-11T22:30:05.763Z,78.60
2018-12-11T22:32:41.139Z,78.40
2018-12-11T22:35:15.729Z,79.40
2018-12-11T22:40:22.105Z,78.70
2018-12-11T22:42:59.963Z,78.30
2018-12-11T22:48:45.686Z,78.80
2018-12-11T22:51:27.736Z,78.90
2018-12-11T22:54:04.498Z,78.90
2018-12-11T22:56:42.045Z,79.30
2018-12-11T22:59:14.131Z,79.30
2018-12-11T23:01:43.727Z,79.40
2018-12-11T23:07:00.565Z,79.60
2018-12-11T23:09:41.541Z,80.10
2018-12-11T23:12:18.546Z,80.60
2018-12-11T23:14:54.441Z,80.30
2018-12-11T23:17:30.242Z,80.30
2018-12-11T23:20:02.033Z,80.70
2018-12-11T23:22:36.784Z,80.70
2018-12-11T23:25:18.753Z,80.50
2018-12-11T23:27:53.490Z,80.90
2018-12-11T23:30:29.413Z,81.10
2018-12-11T23:33:06.476Z,81.30
2018-12-11T23:35:42.526Z,80.90
2018-12-11T23:38:16.781Z,80.70
2018-12-11T23:43:51.383Z,81.20
2018-12-11T23:46:26.420Z,80.70
2018-12-11T23:49:05.665Z,80.50
2018-12-11T23:51:43.262Z,80.90
2018-12-11T23:54:20.072Z,80.90
2018-12-11T23:56:55.188Z,80.90
